My Meet Scores
Katia Lachajczyk, St. Charles Gymnastics Academy - MyMeetScores.com
Top100 | Top Teams | Upcoming Meets | Completed Meets | Latest | Add Scores | Help| Support | Bookmark and Share

Katia Lachajczyk, St. Charles Gymnastics Academy
Personal Bests
LevelVault BarsBeamFloorAA
38.7009.250 9.1259.00036.075
49.5259.800 9.7509.77538.450
69.5759.750 9.8509.85038.925
79.1509.725 9.9009.82538.500
AllLevels8.6009.025 8.5009.22535.350
Scores on America's Top 100as of 10.14.2019
Year Level Vault Bars Beam Floor AA
2018 69.7509.850, 9.7759.850, 9.85038.925, 38.500
2019 79.9009.82538.500

Click here to view our
exclusive Top 100 Collection

Click here to view our
exclusive Top 100 Collection
Meet Scores
Date Meet Team Session Level Division Vault Bars Beam Floor AA
2019-03-29 Illinois Level 7 & 8 State Meet St. Charles Gymnastics Academy 7 7 Jr D 9.150 11 9.675 2T 9.900 1 9.775 1 38.500 1
2019-02-15 Women's Midwest Open St. Charles Gymnastics Academy 04 7 Junior A 0.000 13T 9.725 3 8.900 11 0.000 13 18.625 13
2019-01-25 Metroplex Challenge St. Charles Gymnastics Academy W06 7 JrA 8.900 10 9.675 3T 8.800 10 9.650 2 37.025 5
2019-01-11 St Jude Benefit Meet St. Charles Gymnastics Academy 4B 7 Jr B 8.825 6T 9.700 2 9.725 1 9.825 1 38.075 1
2018-12-07 St. Nick Invite 2018 St. Charles Gymnastics Academy 6B 7 JrA 8.825 5 9.550 3T 9.750 2 9.300 9 37.425 4
2018-03-16 2018 Illinois Level 6, 9, 10 State Championships St. Charles Gymnastics Academy 08 6 Ch C 9.350 4T 9.525 2 9.775 1 9.850 1 38.500 2
2018-02-23 Kinetic Classic St. Charles Gymnastics Academy 9 6 Younger 9.575 3 9.750 1 9.750 1 9.850 1 38.925 1
2018-02-16 Big Classic St. Charles Gymnastics Academy 1A 6 Junior B 9.175 3 9.375 1 9.850 1 9.575 1T 37.975 1
2017-12-14 2017 Women's Hawaiian Pineapple Classic St. Charles Gymnastics Academy 9A 6 Ages10U 9.125 6 8.850 15 9.700 1T 9.800 1 37.475 2
2017-12-01 Ultimate Wish Classic St. Charles Gymnastics Academy 9 6 CH 9.200 2 9.450 2 9.575 2 9.675 2 37.900 1
2017-11-17 SCGA Classic St. Charles Gymnastics Academy 3 6 JrB 9.475 1 8.700 6 9.700 1 9.800 1 37.675 1
2017-03-10 2017 Illinois Level 4 State Championships St. Charles Gymnastics Academy 3 4 Youth B 9.075 6T 9.725 1 9.125 14T 9.750 1 37.675 1
2017-02-24 Kinetic Classic St. Charles Gymnastics Academy 5,6 4 All Ages 9.525 1 9.700 1 9.725 1 9.500 4T 38.450 1
2017-02-10 IGI Chicago Style Gymnastics Meet St. Charles Gymnastics Academy 621L 4 JrB 8.925 3 9.750 1 9.475 2 9.400 1 37.550 1
2017-01-20 2017 Bravo Classic St. Charles Gymnastics Academy 07B 4 9yrs 8.675 5 9.800 1 9.350 8 9.775 1 37.600 2
2017-01-13 St Jude Benefit Meet St. Charles Gymnastics Academy 3A 4 Jr C 8.475 5 9.500 1 9.625 1 9.525 1 37.125 1
2016-12-15 2016 Hawaiian Pineapple Sanction St. Charles Gymnastics Academy 9A 4 Age 9 8.650 11T 9.700 1 9.750 1 9.750 1 37.850 1
2016-12-02 Ultimate Wish Classic St. Charles Gymnastics Academy 13 4 Jr B 8.825 2 9.700 1 8.875 10T 9.700 1 37.100 1
2016-03-10 2016 Illinois Level 4 State Meet St. Charles Gymnastics Academy All 4 Child-B 7.750 31 9.000 11 8.700 26 9.500 2 34.950 19
2016-02-05 St. Valentines Classic St. Charles Gymnastics Academy 1A AllLevels All Ages 8.600 31T 9.025 10T 8.500 22T 9.225 4 35.350 13
2016-01-22 King Arthur Invitational St. Charles Gymnastics Academy S12 4 Jr.A 8.025 12 9.250 5 9.500 1 9.525 2 36.300 3
2016-01-08 St Jude Benefit Meet St. Charles Gymnastics Academy 4A 4 Jr A 9.025 3T 9.100 6 9.100 7 9.150 1T 36.375 5
2015-12-17 2015 Hawaiian Pineapple Classic St. Charles Gymnastics Academy 1A 4 Ages 8U 8.400 7T 8.900 7 8.800 9T 9.050 4 35.150 5
2015-12-04 2015 Ultimate Wish Classic St. Charles Gymnastics Academy 7 4 All 8.950 16 9.000 23 8.650 41 9.400 8 36.000 15
2015-02-20 Midwest Open 2015 St. Charles Gymnastics Academy 3A 3 6-7 8.700 13 9.250 2 9.125 4 9.000 5 36.075 4
Get your scores on
a t-shirt, pin, or hoodie

www.lazysuits.com